sensor_id;sensor_type;location;lat;lon;timestamp;pressure;altitude;pressure_sealevel;temperature;humidity
71791;BME280;59638;52.126;5.434;2024-02-26T00:01:46;100030.63;;;4.94;100.00
71791;BME280;59638;52.126;5.434;2024-02-26T00:04:13;100044.66;;;4.93;100.00
71791;BME280;59638;52.126;5.434;2024-02-26T00:06:39;100044.19;;;4.88;100.00
71791;BME280;59638;52.126;5.434;2024-02-26T00:09:09;100046.09;;;4.86;100.00
71791;BME280;59638;52.126;5.434;2024-02-26T00:11:36;100049.88;;;4.82;100.00
71791;BME280;59638;52.126;5.434;2024-02-26T00:14:03;100053.94;;;4.75;100.00
71791;BME280;59638;52.126;5.434;2024-02-26T00:16:30;100052.53;;;4.71;100.00
71791;BME280;59638;52.126;5.434;2024-02-26T00:18:57;100056.09;;;4.70;100.00
71791;BME280;59638;52.126;5.434;2024-02-26T00:21:23;100054.41;;;4.69;100.00
71791;BME280;59638;52.126;5.434;2024-02-26T00:23:50;100060.72;;;4.66;100.00
71791;BME280;59638;52.126;5.434;2024-02-26T00:26:17;100058.47;;;4.61;100.00
71791;BME280;59638;52.126;5.434;2024-02-26T00:28:43;100067.25;;;4.60;100.00
71791;BME280;59638;52.126;5.434;2024-02-26T00:31:10;100060.50;;;4.58;100.00
71791;BME280;59638;52.126;5.434;2024-02-26T00:33:36;100060.63;;;4.56;100.00
71791;BME280;59638;52.126;5.434;2024-02-26T00:36:04;100062.75;;;4.51;100.00
71791;BME280;59638;52.126;5.434;2024-02-26T00:38:30;100052.28;;;4.51;100.00
71791;BME280;59638;52.126;5.434;2024-02-26T00:40:57;100057.75;;;4.48;100.00
71791;BME280;59638;52.126;5.434;2024-02-26T00:43:23;100063.22;;;4.45;100.00
71791;BME280;59638;52.126;5.434;2024-02-26T00:45:50;100062.50;;;4.43;100.00
71791;BME280;59638;52.126;5.434;2024-02-26T00:48:18;100062.59;;;4.42;100.00
71791;BME280;59638;52.126;5.434;2024-02-26T00:50:44;100068.09;;;4.39;100.00
71791;BME280;59638;52.126;5.434;2024-02-26T00:53:11;100067.47;;;4.35;100.00
71791;BME280;59638;52.126;5.434;2024-02-26T00:55:37;100062.25;;;4.35;100.00
71791;BME280;59638;52.126;5.434;2024-02-26T00:58:04;100071.03;;;4.34;100.00
71791;BME280;59638;52.126;5.434;2024-02-26T01:00:30;100068.28;;;4.35;100.00
71791;BME280;59638;52.126;5.434;2024-02-26T01:02:57;100070.06;;;4.35;100.00
71791;BME280;59638;52.126;5.434;2024-02-26T01:05:23;100067.47;;;4.35;100.00
71791;BME280;59638;52.126;5.434;2024-02-26T01:07:50;100070.56;;;4.40;100.00
71791;BME280;59638;52.126;5.434;2024-02-26T01:10:16;100067.25;;;4.38;100.00
71791;BME280;59638;52.126;5.434;2024-02-26T01:12:43;100063.69;;;4.39;100.00
71791;BME280;59638;52.126;5.434;2024-02-26T01:15:09;100062.03;;;4.38;100.00
71791;BME280;59638;52.126;5.434;2024-02-26T01:17:36;100066.28;;;4.39;100.00
71791;BME280;59638;52.126;5.434;2024-02-26T01:20:04;100056.81;;;4.38;100.00
71791;BME280;59638;52.126;5.434;2024-02-26T01:22:30;100064.28;;;4.43;100.00
71791;BME280;59638;52.126;5.434;2024-02-26T01:24:57;100063.22;;;4.45;100.00
71791;BME280;59638;52.126;5.434;2024-02-26T01:27:23;100051.09;;;4.44;100.00
71791;BME280;59638;52.126;5.434;2024-02-26T01:29:52;100056.91;;;4.48;100.00
71791;BME280;59638;52.126;5.434;2024-02-26T01:32:19;100051.59;;;4.49;100.00
71791;BME280;59638;52.126;5.434;2024-02-26T01:34:46;100054.19;;;4.49;100.00
71791;BME280;59638;52.126;5.434;2024-02-26T01:37:12;100044.78;;;4.47;100.00
71791;BME280;59638;52.126;5.434;2024-02-26T01:39:39;100037.09;;;4.45;100.00
71791;BME280;59638;52.126;5.434;2024-02-26T01:42:07;100043.13;;;4.46;100.00
71791;BME280;59638;52.126;5.434;2024-02-26T01:44:34;100045.88;;;4.44;100.00
71791;BME280;59638;52.126;5.434;2024-02-26T01:47:00;100049.19;;;4.46;100.00
71791;BME280;59638;52.126;5.434;2024-02-26T01:49:28;100046.59;;;4.46;100.00
71791;BME280;59638;52.126;5.434;2024-02-26T01:51:55;100053.34;;;4.49;100.00
71791;BME280;59638;52.126;5.434;2024-02-26T01:54:23;100051.47;;;4.51;100.00
71791;BME280;59638;52.126;5.434;2024-02-26T01:56:49;100054.78;;;4.53;100.00
71791;BME280;59638;52.126;5.434;2024-02-26T01:59:17;100056.56;;;4.52;100.00
71791;BME280;59638;52.126;5.434;2024-02-26T02:01:44;100068.69;;;4.53;100.00
71791;BME280;59638;52.126;5.434;2024-02-26T02:04:14;100058.09;;;4.55;100.00
71791;BME280;59638;52.126;5.434;2024-02-26T02:06:43;100065.84;;;4.56;100.00
71791;BME280;59638;52.126;5.434;2024-02-26T02:09:11;100070.81;;;4.59;100.00
71791;BME280;59638;52.126;5.434;2024-02-26T02:11:38;100079.38;;;4.61;100.00
71791;BME280;59638;52.126;5.434;2024-02-26T02:14:04;100071.66;;;4.60;100.00
71791;BME280;59638;52.126;5.434;2024-02-26T02:16:31;100064.75;;;4.59;100.00
71791;BME280;59638;52.126;5.434;2024-02-26T02:18:58;100070.59;;;4.62;100.00
71791;BME280;59638;52.126;5.434;2024-02-26T02:21:24;100077.72;;;4.60;100.00
71791;BME280;59638;52.126;5.434;2024-02-26T02:23:51;100075.84;;;4.62;100.00
71791;BME280;59638;52.126;5.434;2024-02-26T02:26:18;100080.09;;;4.63;100.00
71791;BME280;59638;52.126;5.434;2024-02-26T02:28:45;100084.25;;;4.66;100.00
71791;BME280;59638;52.126;5.434;2024-02-26T02:31:13;100089.34;;;4.68;100.00
71791;BME280;59638;52.126;5.434;2024-02-26T02:33:41;100080.69;;;4.67;100.00
71791;BME280;59638;52.126;5.434;2024-02-26T02:36:08;100085.78;;;4.69;100.00
71791;BME280;59638;52.126;5.434;2024-02-26T02:38:37;100095.06;;;4.73;100.00
71791;BME280;59638;52.126;5.434;2024-02-26T02:41:04;100090.78;;;4.72;100.00
71791;BME280;59638;52.126;5.434;2024-02-26T02:43:31;100099.34;;;4.74;100.00
71791;BME280;59638;52.126;5.434;2024-02-26T02:45:57;100093.28;;;4.73;100.00
71791;BME280;59638;52.126;5.434;2024-02-26T02:48:24;100101.25;;;4.72;100.00
71791;BME280;59638;52.126;5.434;2024-02-26T02:50:51;100112.41;;;4.74;100.00
71791;BME280;59638;52.126;5.434;2024-02-26T02:53:17;100099.34;;;4.74;100.00
71791;BME280;59638;52.126;5.434;2024-02-26T02:55:44;100112.91;;;4.79;100.00
71791;BME280;59638;52.126;5.434;2024-02-26T02:58:11;100120.03;;;4.77;100.00
71791;BME280;59638;52.126;5.434;2024-02-26T03:00:37;100121.91;;;4.75;100.00
71791;BME280;59638;52.126;5.434;2024-02-26T03:03:04;100121.09;;;4.74;100.00
71791;BME280;59638;52.126;5.434;2024-02-26T03:05:31;100126.09;;;4.77;100.00
71791;BME280;59638;52.126;5.434;2024-02-26T03:07:57;100124.31;;;4.78;100.00
71791;BME280;59638;52.126;5.434;2024-02-26T03:10:24;100127.97;;;4.75;100.00
71791;BME280;59638;52.126;5.434;2024-02-26T03:12:50;100132.16;;;4.78;100.00
71791;BME280;59638;52.126;5.434;2024-02-26T03:15:17;100136.69;;;4.76;100.00
71791;BME280;59638;52.126;5.434;2024-02-26T03:17:43;100143.66;;;4.75;100.00
71791;BME280;59638;52.126;5.434;2024-02-26T03:20:10;100142.00;;;4.74;100.00
71791;BME280;59638;52.126;5.434;2024-02-26T03:22:38;100144.75;;;4.73;100.00
71791;BME280;59638;52.126;5.434;2024-02-26T03:25:06;100152.72;;;4.71;100.00
71791;BME280;59638;52.126;5.434;2024-02-26T03:27:32;100151.03;;;4.70;100.00
71791;BME280;59638;52.126;5.434;2024-02-26T03:29:59;100153.75;;;4.69;100.00
71791;BME280;59638;52.126;5.434;2024-02-26T03:32:26;100151.38;;;4.66;100.00
71791;BME280;59638;52.126;5.434;2024-02-26T03:34:52;100157.56;;;4.64;100.00
71791;BME280;59638;52.126;5.434;2024-02-26T03:37:22;100161.97;;;4.64;100.00
71791;BME280;59638;52.126;5.434;2024-02-26T03:39:48;100163.00;;;4.61;100.00
71791;BME280;59638;52.126;5.434;2024-02-26T03:42:15;100151.84;;;4.59;100.00
71791;BME280;59638;52.126;5.434;2024-02-26T03:44:42;100169.31;;;4.59;100.00
71791;BME280;59638;52.126;5.434;2024-02-26T03:47:09;100153.88;;;4.56;100.00
71791;BME280;59638;52.126;5.434;2024-02-26T03:49:35;100159.94;;;4.56;100.00
71791;BME280;59638;52.126;5.434;2024-02-26T03:52:02;100172.06;;;4.57;100.00
71791;BME280;59638;52.126;5.434;2024-02-26T03:54:28;100167.03;;;4.54;100.00
71791;BME280;59638;52.126;5.434;2024-02-26T03:56:55;100167.03;;;4.54;100.00
71791;BME280;59638;52.126;5.434;2024-02-26T03:59:21;100173.22;;;4.53;100.00
71791;BME280;59638;52.126;5.434;2024-02-26T04:01:50;100170.84;;;4.50;100.00
71791;BME280;59638;52.126;5.434;2024-02-26T04:04:17;100163.97;;;4.49;100.00
71791;BME280;59638;52.126;5.434;2024-02-26T04:06:44;100163.97;;;4.49;100.00
71791;BME280;59638;52.126;5.434;2024-02-26T04:09:14;100164.88;;;4.48;100.00
71791;BME280;59638;52.126;5.434;2024-02-26T04:11:40;100172.72;;;4.48;100.00
71791;BME280;59638;52.126;5.434;2024-02-26T04:14:09;100178.91;;;4.47;100.00
71791;BME280;59638;52.126;5.434;2024-02-26T04:16:38;100176.28;;;4.47;100.00
71791;BME280;59638;52.126;5.434;2024-02-26T04:19:05;100187.56;;;4.48;100.00
71791;BME280;59638;52.126;5.434;2024-02-26T04:21:31;100187.38;;;4.51;100.00
71791;BME280;59638;52.126;5.434;2024-02-26T04:23:57;100182.13;;;4.51;100.00
71791;BME280;59638;52.126;5.434;2024-02-26T04:26:29;100184.88;;;4.49;100.00
71791;BME280;59638;52.126;5.434;2024-02-26T04:28:56;100185.69;;;4.50;100.00
71791;BME280;59638;52.126;5.434;2024-02-26T04:31:22;100193.53;;;4.50;100.00
71791;BME280;59638;52.126;5.434;2024-02-26T04:33:49;100184.63;;;4.52;100.00
71791;BME280;59638;52.126;5.434;2024-02-26T04:36:16;100188.06;;;4.53;100.00
71791;BME280;59638;52.126;5.434;2024-02-26T04:38:45;100196.75;;;4.53;100.00
71791;BME280;59638;52.126;5.434;2024-02-26T04:41:12;100196.53;;;4.56;100.00
71791;BME280;59638;52.126;5.434;2024-02-26T04:43:38;100195.69;;;4.56;100.00
71791;BME280;59638;52.126;5.434;2024-02-26T04:46:08;100201.50;;;4.59;100.00
71791;BME280;59638;52.126;5.434;2024-02-26T04:48:37;100196.06;;;4.62;100.00
71791;BME280;59638;52.126;5.434;2024-02-26T04:51:05;100202.00;;;4.64;100.00
71791;BME280;59638;52.126;5.434;2024-02-26T04:53:31;100207.13;;;4.66;100.00
71791;BME280;59638;52.126;5.434;2024-02-26T04:55:58;100210.56;;;4.67;100.00
71791;BME280;59638;52.126;5.434;2024-02-26T04:58:24;100206.03;;;4.69;100.00
71791;BME280;59638;52.126;5.434;2024-02-26T05:00:51;100207.72;;;4.70;100.00
71791;BME280;59638;52.126;5.434;2024-02-26T05:03:17;100206.66;;;4.72;100.00
71791;BME280;59638;52.126;5.434;2024-02-26T05:05:44;100216.03;;;4.75;100.00
71791;BME280;59638;52.126;5.434;2024-02-26T05:08:11;100209.97;;;4.74;100.00
71791;BME280;59638;52.126;5.434;2024-02-26T05:10:38;100209.63;;;4.79;100.00
71791;BME280;59638;52.126;5.434;2024-02-26T05:13:07;100213.19;;;4.78;100.00
71791;BME280;59638;52.126;5.434;2024-02-26T05:15:35;100210.59;;;4.78;100.00
71791;BME280;59638;52.126;5.434;2024-02-26T05:18:02;100220.22;;;4.77;100.00
71791;BME280;59638;52.126;5.434;2024-02-26T05:20:29;100228.19;;;4.76;100.00
71791;BME280;59638;52.126;5.434;2024-02-26T05:22:55;100220.44;;;4.74;100.00
71791;BME280;59638;52.126;5.434;2024-02-26T05:25:22;100219.38;;;4.77;100.00
71791;BME280;59638;52.126;5.434;2024-02-26T05:27:48;100213.53;;;4.73;100.00
71791;BME280;59638;52.126;5.434;2024-02-26T05:30:14;100217.22;;;4.71;100.00
71791;BME280;59638;52.126;5.434;2024-02-26T05:32:41;100211.25;;;4.69;100.00
71791;BME280;59638;52.126;5.434;2024-02-26T05:35:08;100227.81;;;4.69;100.00
71791;BME280;59638;52.126;5.434;2024-02-26T05:37:35;100231.13;;;4.71;100.00
71791;BME280;59638;52.126;5.434;2024-02-26T05:40:01;100229.47;;;4.70;100.00
71791;BME280;59638;52.126;5.434;2024-02-26T05:42:30;100233.88;;;4.70;100.00
71791;BME280;59638;52.126;5.434;2024-02-26T05:44:57;100234.78;;;4.69;100.00
71791;BME280;59638;52.126;5.434;2024-02-26T05:47:24;100242.63;;;4.69;100.00
71791;BME280;59638;52.126;5.434;2024-02-26T05:49:50;100251.22;;;4.71;100.00
71791;BME280;59638;52.126;5.434;2024-02-26T05:52:17;100242.63;;;4.69;100.00
71791;BME280;59638;52.126;5.434;2024-02-26T05:54:43;100244.31;;;4.70;100.00
71791;BME280;59638;52.126;5.434;2024-02-26T05:57:09;100248.81;;;4.68;100.00
71791;BME280;59638;52.126;5.434;2024-02-26T05:59:36;100251.66;;;4.64;100.00
71791;BME280;59638;52.126;5.434;2024-02-26T06:02:02;100267.84;;;4.70;100.00
71791;BME280;59638;52.126;5.434;2024-02-26T06:04:29;100260.00;;;4.70;100.00
71791;BME280;59638;52.126;5.434;2024-02-26T06:06:56;100260.94;;;4.69;100.00
71791;BME280;59638;52.126;5.434;2024-02-26T06:09:23;100263.78;;;4.66;100.00
71791;BME280;59638;52.126;5.434;2024-02-26T06:11:49;100255.00;;;4.67;100.00
71791;BME280;59638;52.126;5.434;2024-02-26T06:14:16;100260.94;;;4.69;100.00
71791;BME280;59638;52.126;5.434;2024-02-26T06:16:44;100272.34;;;4.68;100.00
71791;BME280;59638;52.126;5.434;2024-02-26T06:19:11;100271.38;;;4.69;100.00
71791;BME280;59638;52.126;5.434;2024-02-26T06:21:39;100273.09;;;4.70;100.00
71791;BME280;59638;52.126;5.434;2024-02-26T06:24:06;100282.34;;;4.74;100.00
71791;BME280;59638;52.126;5.434;2024-02-26T06:26:32;100287.56;;;4.74;100.00
71791;BME280;59638;52.126;5.434;2024-02-26T06:28:59;100283.81;;;4.78;100.00
71791;BME280;59638;52.126;5.434;2024-02-26T06:31:26;100281.06;;;4.79;100.00
71791;BME280;59638;52.126;5.434;2024-02-26T06:33:54;100282.13;;;4.77;100.00
71791;BME280;59638;52.126;5.434;2024-02-26T06:36:22;100287.38;;;4.77;100.00
71791;BME280;59638;52.126;5.434;2024-02-26T06:38:49;100282.13;;;4.77;100.00
71791;BME280;59638;52.126;5.434;2024-02-26T06:41:15;100292.81;;;4.74;100.00
71791;BME280;59638;52.126;5.434;2024-02-26T06:43:42;100294.47;;;4.75;100.00
71791;BME280;59638;52.126;5.434;2024-02-26T06:46:08;100295.41;;;4.74;100.00
71791;BME280;59638;52.126;5.434;2024-02-26T06:48:35;100298.88;;;4.74;100.00
71791;BME280;59638;52.126;5.434;2024-02-26T06:51:03;100304.94;;;4.75;100.00
71791;BME280;59638;52.126;5.434;2024-02-26T06:53:30;100311.84;;;4.76;100.00
71791;BME280;59638;52.126;5.434;2024-02-26T06:55:56;100308.03;;;4.80;100.00
71791;BME280;59638;52.126;5.434;2024-02-26T06:58:22;100313.16;;;4.81;100.00
71791;BME280;59638;52.126;5.434;2024-02-26T07:00:49;100317.66;;;4.79;100.00
71791;BME280;59638;52.126;5.434;2024-02-26T07:03:16;100323.72;;;4.80;100.00
71791;BME280;59638;52.126;5.434;2024-02-26T07:05:42;100313.28;;;4.80;100.00
71791;BME280;59638;52.126;5.434;2024-02-26T07:08:10;100329.91;;;4.79;100.00
71791;BME280;59638;52.126;5.434;2024-02-26T07:10:37;100326.34;;;4.80;100.00
71791;BME280;59638;52.126;5.434;2024-02-26T07:13:03;100333.25;;;4.81;100.00
71791;BME280;59638;52.126;5.434;2024-02-26T07:15:30;100333.97;;;4.83;100.00
71791;BME280;59638;52.126;5.434;2024-02-26T07:17:57;100345.28;;;4.83;100.00
71791;BME280;59638;52.126;5.434;2024-02-26T07:20:24;100347.75;;;4.85;100.00
71791;BME280;59638;52.126;5.434;2024-02-26T07:22:50;100354.66;;;4.86;100.00
71791;BME280;59638;52.126;5.434;2024-02-26T07:25:17;100361.56;;;4.87;100.00
71791;BME280;59638;52.126;5.434;2024-02-26T07:27:43;100356.31;;;4.87;100.00
71791;BME280;59638;52.126;5.434;2024-02-26T07:30:10;100365.13;;;4.86;100.00
71791;BME280;59638;52.126;5.434;2024-02-26T07:32:37;100365.94;;;4.86;100.00
71791;BME280;59638;52.126;5.434;2024-02-26T07:35:04;100357.97;;;4.88;100.00
71791;BME280;59638;52.126;5.434;2024-02-26T07:37:31;100378.06;;;4.87;100.00
71791;BME280;59638;52.126;5.434;2024-02-26T07:39:58;100365.84;;;4.88;100.00
71791;BME280;59638;52.126;5.434;2024-02-26T07:42:24;100377.88;;;4.90;100.00
71791;BME280;59638;52.126;5.434;2024-02-26T07:44:51;100368.44;;;4.88;100.00
71791;BME280;59638;52.126;5.434;2024-02-26T07:47:17;100370.34;;;4.86;100.00
71791;BME280;59638;52.126;5.434;2024-02-26T07:49:44;100374.63;;;4.87;100.00
71791;BME280;59638;52.126;5.434;2024-02-26T07:52:11;100378.06;;;4.87;100.00
71791;BME280;59638;52.126;5.434;2024-02-26T07:54:37;100383.41;;;4.86;100.00
71791;BME280;59638;52.126;5.434;2024-02-26T07:57:03;100394.00;;;4.84;100.00
71791;BME280;59638;52.126;5.434;2024-02-26T07:59:31;100389.72;;;4.83;100.00
71791;BME280;59638;52.126;5.434;2024-02-26T08:01:58;100402.69;;;4.85;100.00
71791;BME280;59638;52.126;5.434;2024-02-26T08:04:25;100402.56;;;4.86;100.00
71791;BME280;59638;52.126;5.434;2024-02-26T08:06:53;100405.06;;;4.88;100.00
71791;BME280;59638;52.126;5.434;2024-02-26T08:09:19;100410.09;;;4.91;100.00
71791;BME280;59638;52.126;5.434;2024-02-26T08:11:46;100403.78;;;4.94;100.00
71791;BME280;59638;52.126;5.434;2024-02-26T08:14:12;100415.06;;;4.94;100.00
71791;BME280;59638;52.126;5.434;2024-02-26T08:16:39;100419.25;;;4.97;100.00
71791;BME280;59638;52.126;5.434;2024-02-26T08:19:06;100418.19;;;4.99;100.00
71791;BME280;59638;52.126;5.434;2024-02-26T08:21:33;100416.53;;;4.98;100.00
71791;BME280;59638;52.126;5.434;2024-02-26T08:23:59;100423.44;;;4.99;100.00
71791;BME280;59638;52.126;5.434;2024-02-26T08:26:26;100426.75;;;5.01;100.00
71791;BME280;59638;52.126;5.434;2024-02-26T08:28:52;100425.94;;;5.01;100.00
71791;BME280;59638;52.126;5.434;2024-02-26T08:31:20;100428.66;;;4.99;100.00
71791;BME280;59638;52.126;5.434;2024-02-26T08:33:47;100428.66;;;4.99;100.00
71791;BME280;59638;52.126;5.434;2024-02-26T08:36:13;100432.22;;;4.98;100.00
71791;BME280;59638;52.126;5.434;2024-02-26T08:38:40;100439.13;;;4.99;100.00
71791;BME280;59638;52.126;5.434;2024-02-26T08:41:06;100444.34;;;4.99;100.00
71791;BME280;59638;52.126;5.434;2024-02-26T08:43:32;100444.47;;;4.98;100.00
71791;BME280;59638;52.126;5.434;2024-02-26T08:45:59;100444.47;;;4.98;100.00
71791;BME280;59638;52.126;5.434;2024-02-26T08:48:25;100452.19;;;4.99;100.00
71791;BME280;59638;52.126;5.434;2024-02-26T08:50:52;100449.59;;;4.99;100.00
71791;BME280;59638;52.126;5.434;2024-02-26T08:53:20;100447.81;;;5.00;100.00
71791;BME280;59638;52.126;5.434;2024-02-26T08:55:56;100458.16;;;5.01;100.00
71791;BME280;59638;52.126;5.434;2024-02-26T08:58:23;100470.31;;;5.02;100.00
71791;BME280;59638;52.126;5.434;2024-02-26T09:00:49;100466.00;;;5.01;100.00
71791;BME280;59638;52.126;5.434;2024-02-26T09:03:16;100471.22;;;5.01;100.00
71791;BME280;59638;52.126;5.434;2024-02-26T09:05:43;100476.56;;;5.00;100.00
71791;BME280;59638;52.126;5.434;2024-02-26T09:08:09;100464.44;;;4.99;100.00
71791;BME280;59638;52.126;5.434;2024-02-26T09:10:36;100475.03;;;4.97;100.00
71791;BME280;59638;52.126;5.434;2024-02-26T09:13:02;100482.88;;;4.97;100.00
71791;BME280;59638;52.126;5.434;2024-02-26T09:15:29;100486.44;;;4.96;100.00
71791;BME280;59638;52.126;5.434;2024-02-26T09:17:56;100495.19;;;4.95;100.00
71791;BME280;59638;52.126;5.434;2024-02-26T09:20:22;100480.38;;;4.96;100.00
71791;BME280;59638;52.126;5.434;2024-02-26T09:22:50;100485.81;;;4.93;100.00
71791;BME280;59638;52.126;5.434;2024-02-26T09:25:17;100493.66;;;4.93;100.00
71791;BME280;59638;52.126;5.434;2024-02-26T09:27:44;100492.72;;;4.94;100.00
71791;BME280;59638;52.126;5.434;2024-02-26T09:30:11;100504.22;;;4.91;100.00
71791;BME280;59638;52.126;5.434;2024-02-26T09:32:39;100504.22;;;4.91;100.00
71791;BME280;59638;52.126;5.434;2024-02-26T09:35:06;100502.56;;;4.90;100.00
71791;BME280;59638;52.126;5.434;2024-02-26T09:37:33;100513.03;;;4.90;100.00
71791;BME280;59638;52.126;5.434;2024-02-26T09:40:00;100506.63;;;4.94;100.00
71791;BME280;59638;52.126;5.434;2024-02-26T09:42:27;100523.97;;;4.95;100.00
71791;BME280;59638;52.126;5.434;2024-02-26T09:45:00;100520.53;;;4.95;100.00
71791;BME280;59638;52.126;5.434;2024-02-26T09:47:30;100522.41;;;4.93;100.00
71791;BME280;59638;52.126;5.434;2024-02-26T09:49:58;100523.50;;;4.90;100.00
71791;BME280;59638;52.126;5.434;2024-02-26T09:52:28;100523.25;;;4.93;100.00
71791;BME280;59638;52.126;5.434;2024-02-26T09:54:55;100526.81;;;4.92;100.00
71791;BME280;59638;52.126;5.434;2024-02-26T09:57:21;100533.53;;;4.96;100.00
71791;BME280;59638;52.126;5.434;2024-02-26T09:59:53;100535.19;;;4.97;100.00
71791;BME280;59638;52.126;5.434;2024-02-26T10:02:23;100552.75;;;4.95;100.00
71791;BME280;59638;52.126;5.434;2024-02-26T10:04:50;100544.19;;;4.93;100.00
71791;BME280;59638;52.126;5.434;2024-02-26T10:07:18;100547.50;;;4.95;100.00
71791;BME280;59638;52.126;5.434;2024-02-26T10:09:45;100555.47;;;4.94;100.00
71791;BME280;59638;52.126;5.434;2024-02-26T10:12:11;100552.97;;;4.92;100.00
71791;BME280;59638;52.126;5.434;2024-02-26T10:14:39;100559.88;;;4.93;100.00
71791;BME280;59638;52.126;5.434;2024-02-26T10:17:08;100563.44;;;4.92;100.00
71791;BME280;59638;52.126;5.434;2024-02-26T10:19:35;100563.22;;;4.95;100.00
71791;BME280;59638;52.126;5.434;2024-02-26T10:22:04;100568.25;;;4.98;100.00
71791;BME280;59638;52.126;5.434;2024-02-26T10:24:31;100566.56;;;4.97;100.00
71791;BME280;59638;52.126;5.434;2024-02-26T10:26:58;100581.31;;;4.98;100.00
71791;BME280;59638;52.126;5.434;2024-02-26T10:29:25;100583.69;;;5.01;100.00
71791;BME280;59638;52.126;5.434;2024-02-26T10:31:52;100581.84;;;5.03;100.00
71791;BME280;59638;52.126;5.434;2024-02-26T10:34:19;100594.16;;;5.01;100.00
71791;BME280;59638;52.126;5.434;2024-02-26T10:36:46;100596.59;;;5.04;100.00
71791;BME280;59638;52.126;5.434;2024-02-26T10:39:20;100602.75;;;5.03;100.00
71791;BME280;59638;52.126;5.434;2024-02-26T10:41:46;100607.75;;;5.06;100.00
71791;BME280;59638;52.126;5.434;2024-02-26T10:44:13;100605.03;;;5.08;100.00
71791;BME280;59638;52.126;5.434;2024-02-26T10:46:46;100605.66;;;5.11;100.00
71791;BME280;59638;52.126;5.434;2024-02-26T10:49:15;100609.84;;;5.14;100.00
71791;BME280;59638;52.126;5.434;2024-02-26T10:51:50;100619.97;;;5.18;100.00
71791;BME280;59638;52.126;5.434;2024-02-26T10:54:19;100619.28;;;5.16;100.00
71791;BME280;59638;52.126;5.434;2024-02-26T10:56:46;100629.50;;;5.19;100.00
71791;BME280;59638;52.126;5.434;2024-02-26T10:59:15;100630.97;;;5.24;100.00
71791;BME280;59638;52.126;5.434;2024-02-26T11:01:48;100631.81;;;5.24;100.00
71791;BME280;59638;52.126;5.434;2024-02-26T11:04:16;100642.66;;;5.31;100.00
71791;BME280;59638;52.126;5.434;2024-02-26T11:06:45;100633.88;;;5.32;100.00
71791;BME280;59638;52.126;5.434;2024-02-26T11:09:12;100639.09;;;5.32;100.00
71791;BME280;59638;52.126;5.434;2024-02-26T11:11:41;100642.66;;;5.31;100.00
71791;BME280;59638;52.126;5.434;2024-02-26T11:14:08;100646.25;;;5.30;100.00
71791;BME280;59638;52.126;5.434;2024-02-26T11:16:37;100653.13;;;5.31;100.00
71791;BME280;59638;52.126;5.434;2024-02-26T11:19:06;100650.28;;;5.34;100.00
71791;BME280;59638;52.126;5.434;2024-02-26T11:21:35;100652.31;;;5.30;100.00
71791;BME280;59638;52.126;5.434;2024-02-26T11:24:07;100656.72;;;5.30;100.00
71791;BME280;59638;52.126;5.434;2024-02-26T11:26:40;100649.06;;;5.27;100.00
71791;BME280;59638;52.126;5.434;2024-02-26T11:29:09;100665.72;;;5.26;100.00
71791;BME280;59638;52.126;5.434;2024-02-26T11:31:38;100660.69;;;5.23;100.00
71791;BME280;59638;52.126;5.434;2024-02-26T11:34:07;100674.50;;;5.25;100.00
71791;BME280;59638;52.126;5.434;2024-02-26T11:36:36;100665.09;;;5.22;100.00
71791;BME280;59638;52.126;5.434;2024-02-26T11:39:04;100672.19;;;5.20;100.00
71791;BME280;59638;52.126;5.434;2024-02-26T11:41:31;100683.72;;;5.17;100.00
71791;BME280;59638;52.126;5.434;2024-02-26T11:44:02;100680.81;;;5.22;100.00
71791;BME280;59638;52.126;5.434;2024-02-26T11:46:33;100685.19;;;5.22;100.00
71791;BME280;59638;52.126;5.434;2024-02-26T11:51:55;100689.38;;;5.24;100.00
71791;BME280;59638;52.126;5.434;2024-02-26T11:54:48;100686.44;;;5.29;100.00
71791;BME280;59638;52.126;5.434;2024-02-26T11:57:29;100686.22;;;5.32;100.00
71791;BME280;59638;52.126;5.434;2024-02-26T12:00:10;100692.16;;;5.34;100.00
71791;BME280;59638;52.126;5.434;2024-02-26T12:07:46;100707.56;;;5.38;100.00
71791;BME280;59638;52.126;5.434;2024-02-26T12:12:58;100712.69;;;5.40;100.00
71791;BME280;59638;52.126;5.434;2024-02-26T12:15:33;100709.03;;;5.42;100.00
71791;BME280;59638;52.126;5.434;2024-02-26T12:18:04;100715.22;;;5.41;100.00
71791;BME280;59638;52.126;5.434;2024-02-26T12:20:31;100720.53;;;5.40;100.00
71791;BME280;59638;52.126;5.434;2024-02-26T12:22:58;100722.94;;;5.43;100.00
71791;BME280;59638;52.126;5.434;2024-02-26T12:25:29;100723.91;;;5.42;100.00
71791;BME280;59638;52.126;5.434;2024-02-26T12:27:56;100725.56;;;5.43;100.00
71791;BME280;59638;52.126;5.434;2024-02-26T12:30:23;100732.47;;;5.44;100.00
71791;BME280;59638;52.126;5.434;2024-02-26T12:32:51;100740.53;;;5.41;100.00
71791;BME280;59638;52.126;5.434;2024-02-26T12:35:18;100739.38;;;5.45;100.00
71791;BME280;59638;52.126;5.434;2024-02-26T12:37:46;100736.16;;;5.41;100.00
71791;BME280;59638;52.126;5.434;2024-02-26T12:40:12;100737.06;;;5.40;100.00
71791;BME280;59638;52.126;5.434;2024-02-26T12:42:39;100738.66;;;5.43;100.00
71791;BME280;59638;52.126;5.434;2024-02-26T12:45:08;100737.72;;;5.44;100.00
71791;BME280;59638;52.126;5.434;2024-02-26T12:47:38;100748.19;;;5.44;100.00
71791;BME280;59638;52.126;5.434;2024-02-26T12:50:06;100752.28;;;5.48;100.00
71791;BME280;59638;52.126;5.434;2024-02-26T12:52:37;100753.19;;;5.47;100.00
71791;BME280;59638;52.126;5.434;2024-02-26T12:55:05;100751.31;;;5.49;100.00
71791;BME280;59638;52.126;5.434;2024-02-26T12:57:34;100756.31;;;5.52;100.00
71791;BME280;59638;52.126;5.434;2024-02-26T13:00:02;100761.38;;;5.55;100.00
71791;BME280;59638;52.126;5.434;2024-02-26T13:02:31;100759.66;;;5.54;100.00